createdAt,value
2019-05-06T00:00:55.857Z,99.90
2019-05-06T00:03:20.266Z,99.90
2019-05-06T00:05:54.324Z,99.90
2019-05-06T00:08:26.615Z,99.90
2019-05-06T00:10:58.883Z,99.90
2019-05-06T00:13:30.883Z,99.90
2019-05-06T00:16:03.987Z,99.90
2019-05-06T00:18:36.232Z,99.90
2019-05-06T00:21:08.372Z,99.90
2019-05-06T00:23:46.989Z,99.90
2019-05-06T00:26:44.838Z,99.90
2019-05-06T00:29:24.187Z,99.90
2019-05-06T00:31:56.394Z,99.90
2019-05-06T00:34:28.474Z,99.90
2019-05-06T00:37:00.378Z,99.90
2019-05-06T00:39:56.969Z,99.90
2019-05-06T00:42:34.712Z,99.90
2019-05-06T00:45:09.345Z,99.90
2019-05-06T00:47:41.375Z,99.90
2019-05-06T00:50:14.293Z,99.90
2019-05-06T00:52:46.422Z,99.90
2019-05-06T00:55:18.463Z,99.90
2019-05-06T00:57:50.763Z,99.90
2019-05-06T01:00:28.354Z,99.90
2019-05-06T01:03:00.701Z,99.90
2019-05-06T01:05:33.760Z,99.90
2019-05-06T01:08:06.177Z,99.90
2019-05-06T01:10:38.229Z,99.90
2019-05-06T01:13:25.653Z,99.90
2019-05-06T01:15:57.648Z,99.90
2019-05-06T01:18:29.791Z,99.90
2019-05-06T01:21:11.091Z,99.90
2019-05-06T01:23:45.766Z,99.90
2019-05-06T01:26:18.551Z,99.90
2019-05-06T01:28:50.704Z,99.90
2019-05-06T01:31:24.721Z,99.90
2019-05-06T01:33:56.713Z,99.90
2019-05-06T01:36:28.881Z,99.90
2019-05-06T01:39:25.791Z,99.90
2019-05-06T01:42:13.851Z,99.90
2019-05-06T01:44:45.910Z,99.90
2019-05-06T01:47:18.164Z,99.90
2019-05-06T01:49:50.370Z,99.90
2019-05-06T01:52:24.062Z,99.90
2019-05-06T01:54:56.448Z,99.90
2019-05-06T01:57:28.450Z,99.90
2019-05-06T02:00:00.504Z,99.90
2019-05-06T02:02:34.350Z,99.90
2019-05-06T02:05:06.453Z,99.90
2019-05-06T02:07:38.517Z,99.90
2019-05-06T02:10:11.256Z,99.90
2019-05-06T02:12:44.377Z,99.90
2019-05-06T02:15:16.527Z,99.90
2019-05-06T02:17:48.580Z,99.90
2019-05-06T02:20:20.560Z,99.90
2019-05-06T02:23:08.579Z,99.90
2019-05-06T02:25:47.451Z,99.90
2019-05-06T02:28:19.409Z,99.90
2019-05-06T02:31:09.774Z,99.90
2019-05-06T02:33:56.244Z,99.90
2019-05-06T02:36:48.619Z,99.90
2019-05-06T02:39:23.378Z,99.90
2019-05-06T02:41:55.056Z,99.90
2019-05-06T02:44:27.317Z,99.90
2019-05-06T02:47:19.642Z,99.90
2019-05-06T02:49:55.277Z,99.90
2019-05-06T02:52:27.297Z,99.90
2019-05-06T02:54:59.317Z,99.90
2019-05-06T02:57:33.531Z,99.90
2019-05-06T03:00:06.045Z,99.90
2019-05-06T03:02:43.674Z,99.90
2019-05-06T03:05:13.142Z,99.90
2019-05-06T03:07:45.202Z,99.90
2019-05-06T03:10:18.020Z,99.90
2019-05-06T03:12:50.134Z,99.90
2019-05-06T03:15:23.970Z,99.90
2019-05-06T03:17:56.117Z,99.90
2019-05-06T03:21:16.230Z,99.90
2019-05-06T03:23:54.221Z,99.90
2019-05-06T03:26:26.734Z,99.90
2019-05-06T03:28:58.685Z,99.90
2019-05-06T03:31:36.002Z,99.90
2019-05-06T03:34:28.047Z,99.90
2019-05-06T03:36:40.782Z,99.90
2019-05-06T03:39:13.852Z,99.90
2019-05-06T03:41:46.294Z,99.90
2019-05-06T03:44:18.307Z,99.90
2019-05-06T03:47:08.425Z,99.90
2019-05-06T03:49:44.757Z,99.90
2019-05-06T03:52:17.179Z,99.90
2019-05-06T03:54:52.984Z,99.90
2019-05-06T03:57:26.643Z,99.90
2019-05-06T04:00:04.246Z,99.90
2019-05-06T04:02:39.303Z,99.90
2019-05-06T04:05:08.867Z,99.90
2019-05-06T04:07:45.486Z,99.90
2019-05-06T04:10:15.702Z,99.90
2019-05-06T04:12:53.414Z,99.90
2019-05-06T04:15:27.552Z,99.90
2019-05-06T04:18:03.934Z,99.90
2019-05-06T04:20:46.873Z,99.90
2019-05-06T04:23:43.698Z,99.90
2019-05-06T04:26:45.966Z,99.90
2019-05-06T04:29:14.798Z,99.90
2019-05-06T04:31:46.861Z,99.90
2019-05-06T04:34:19.967Z,99.90
2019-05-06T04:36:53.645Z,99.90
2019-05-06T04:39:26.266Z,99.90
2019-05-06T04:41:58.289Z,99.90
2019-05-06T04:44:32.857Z,99.90
2019-05-06T04:47:05.580Z,99.90
2019-05-06T04:49:38.116Z,99.90
2019-05-06T04:52:10.307Z,99.90
2019-05-06T04:54:44.088Z,99.90
2019-05-06T04:57:16.413Z,99.90
2019-05-06T04:59:48.360Z,99.90
2019-05-06T05:02:23.007Z,99.90
2019-05-06T05:04:55.964Z,99.90
2019-05-06T05:07:28.015Z,99.90
2019-05-06T05:10:05.151Z,99.90
2019-05-06T05:12:58.396Z,99.90
2019-05-06T05:15:49.962Z,99.90
2019-05-06T05:18:35.320Z,99.90
2019-05-06T05:21:07.546Z,99.90
2019-05-06T05:23:40.243Z,99.90
2019-05-06T05:26:12.435Z,99.90
2019-05-06T05:28:44.699Z,99.90
2019-05-06T05:31:17.559Z,99.90
2019-05-06T05:33:49.648Z,99.90
2019-05-06T05:36:23.260Z,99.90
2019-05-06T05:38:55.290Z,99.90
2019-05-06T05:41:27.496Z,99.90
2019-05-06T05:44:12.080Z,99.90
2019-05-06T05:46:44.388Z,99.90
2019-05-06T05:49:32.438Z,99.90
2019-05-06T05:52:04.745Z,99.90
2019-05-06T05:54:37.072Z,99.90
2019-05-06T05:57:11.822Z,99.90
2019-05-06T05:59:43.418Z,99.90
2019-05-06T06:02:15.481Z,99.90
2019-05-06T06:04:56.805Z,99.90
2019-05-06T06:07:22.973Z,99.90
2019-05-06T06:10:05.730Z,99.90
2019-05-06T06:12:37.832Z,99.90
2019-05-06T06:15:22.483Z,99.90
2019-05-06T06:18:13.445Z,99.90
2019-05-06T06:20:55.545Z,99.90
2019-05-06T06:23:32.834Z,99.90
2019-05-06T06:26:14.392Z,99.90
2019-05-06T06:28:46.585Z,99.90
2019-05-06T06:31:33.216Z,99.90
2019-05-06T06:34:13.025Z,99.90
2019-05-06T06:36:54.290Z,99.90
2019-05-06T06:39:32.546Z,99.90
2019-05-06T06:42:04.244Z,99.90
2019-05-06T06:44:36.652Z,99.90
2019-05-06T06:47:08.910Z,99.90
2019-05-06T06:49:42.403Z,99.90
2019-05-06T06:52:15.100Z,99.90
2019-05-06T06:54:47.113Z,99.90
2019-05-06T06:57:46.727Z,99.90
2019-05-06T07:00:46.766Z,99.90
2019-05-06T07:03:28.909Z,99.90
2019-05-06T07:06:06.313Z,99.90
2019-05-06T07:08:38.390Z,99.90
2019-05-06T07:11:10.369Z,99.90
2019-05-06T07:13:54.118Z,99.90
2019-05-06T07:16:26.085Z,99.90
2019-05-06T07:18:58.276Z,99.90
2019-05-06T07:21:53.394Z,99.90
2019-05-06T07:24:25.491Z,99.90
2019-05-06T07:27:06.586Z,99.90
2019-05-06T07:29:38.644Z,99.90
2019-05-06T07:32:12.257Z,99.90
2019-05-06T07:34:44.571Z,99.90
2019-05-06T07:37:16.645Z,99.90
2019-05-06T07:39:48.851Z,99.90
2019-05-06T07:42:26.744Z,99.90
2019-05-06T07:45:16.452Z,99.90
2019-05-06T07:47:53.031Z,99.90
2019-05-06T07:50:25.270Z,99.90
2019-05-06T07:53:16.180Z,99.90
2019-05-06T07:55:48.294Z,99.90
2019-05-06T07:58:22.611Z,99.90
2019-05-06T08:00:54.271Z,99.90
2019-05-06T08:03:26.294Z,99.90
2019-05-06T08:05:58.978Z,99.90
2019-05-06T08:08:33.495Z,99.90
2019-05-06T08:11:04.937Z,99.90
2019-05-06T08:13:37.195Z,99.90
2019-05-06T08:16:22.800Z,99.90
2019-05-06T08:19:07.319Z,99.90
2019-05-06T08:21:42.793Z,99.90
2019-05-06T08:24:14.935Z,99.90
2019-05-06T08:26:47.080Z,99.90
2019-05-06T08:29:19.316Z,99.90
2019-05-06T08:31:52.383Z,99.90
2019-05-06T08:34:24.623Z,99.90
2019-05-06T08:37:12.225Z,99.90
2019-05-06T08:39:46.165Z,99.90
2019-05-06T08:42:18.346Z,99.90
2019-05-06T08:44:52.880Z,99.90
2019-05-06T08:47:24.671Z,99.90
2019-05-06T08:50:02.634Z,99.90
2019-05-06T08:52:53.545Z,99.90
2019-05-06T08:55:32.615Z,99.90
2019-05-06T08:58:05.051Z,99.90
2019-05-06T09:00:42.910Z,99.90
2019-05-06T09:03:14.978Z,99.90
2019-05-06T09:05:53.477Z,99.90
2019-05-06T09:08:26.862Z,99.90
2019-05-06T09:10:59.231Z,99.90
2019-05-06T09:13:32.667Z,99.90
2019-05-06T09:16:05.173Z,99.90
2019-05-06T09:18:37.356Z,99.90
2019-05-06T09:21:09.547Z,99.90
2019-05-06T09:23:42.361Z,99.90
2019-05-06T09:26:16.534Z,99.90
2019-05-06T09:29:02.281Z,99.90
2019-05-06T09:31:42.842Z,99.90
2019-05-06T09:34:32.475Z,99.30
2019-05-06T09:37:24.040Z,99.80
2019-05-06T09:39:56.490Z,99.40
2019-05-06T09:42:28.690Z,97.90
2019-05-06T09:45:03.519Z,97.90
2019-05-06T09:48:06.666Z,97.10
2019-05-06T09:50:46.801Z,97.40
2019-05-06T09:53:24.235Z,97.20
2019-05-06T09:56:13.907Z,97.60
2019-05-06T09:58:45.992Z,97.40
2019-05-06T10:01:18.356Z,96.80
2019-05-06T10:03:50.361Z,96.60
2019-05-06T10:06:22.627Z,96.30
2019-05-06T10:08:55.059Z,95.30
2019-05-06T10:11:27.188Z,93.80
2019-05-06T10:13:59.486Z,93.80
2019-05-06T10:16:32.491Z,94.00
2019-05-06T10:19:05.544Z,94.10
2019-05-06T10:21:37.799Z,93.30
2019-05-06T10:24:10.096Z,93.20
2019-05-06T10:26:47.208Z,93.50
2019-05-06T10:29:43.219Z,93.40
2019-05-06T10:32:24.802Z,92.70
2019-05-06T10:34:56.885Z,92.50
2019-05-06T10:38:17.671Z,93.10
2019-05-06T10:41:03.089Z,91.50
2019-05-06T10:43:54.647Z,91.50
2019-05-06T10:46:26.911Z,91.20
2019-05-06T10:48:59.356Z,90.70
2019-05-06T10:51:42.785Z,90.60
2019-05-06T10:54:15.203Z,90.70
2019-05-06T10:56:57.202Z,88.90
2019-05-06T10:59:28.046Z,86.80
2019-05-06T11:02:05.398Z,87.10
2019-05-06T11:04:37.709Z,88.60
2019-05-06T11:07:12.304Z,86.20
2019-05-06T11:09:43.898Z,86.10
2019-05-06T11:12:15.986Z,86.40
2019-05-06T11:14:48.141Z,84.90
2019-05-06T11:17:22.731Z,85.80
2019-05-06T11:19:54.316Z,82.60
2019-05-06T11:22:26.495Z,83.00
2019-05-06T11:24:58.936Z,85.10
2019-05-06T11:27:32.725Z,83.30
2019-05-06T11:30:07.514Z,81.70
2019-05-06T11:33:04.374Z,81.20
2019-05-06T11:36:09.246Z,81.10
2019-05-06T11:38:43.173Z,80.10
2019-05-06T11:41:15.186Z,78.40
2019-05-06T11:43:47.306Z,80.20
2019-05-06T11:46:19.376Z,78.30
2019-05-06T11:48:52.262Z,78.20
2019-05-06T11:51:26.258Z,78.90
2019-05-06T11:53:58.300Z,76.30
2019-05-06T11:56:32.548Z,76.40
2019-05-06T11:59:04.277Z,75.90
2019-05-06T12:01:43.560Z,77.40
2019-05-06T12:04:15.610Z,73.40
2019-05-06T12:06:47.680Z,72.90
2019-05-06T12:09:22.104Z,72.50
2019-05-06T12:11:53.547Z,73.40
2019-05-06T12:14:25.748Z,73.80
2019-05-06T12:16:57.906Z,73.40
2019-05-06T12:19:32.233Z,71.60
2019-05-06T12:22:04.013Z,73.40
2019-05-06T12:24:36.134Z,73.80
2019-05-06T12:27:08.254Z,74.40
2019-05-06T12:29:42.863Z,73.30
2019-05-06T12:32:37.934Z,73.10
2019-05-06T12:35:12.402Z,71.50
2019-05-06T12:37:45.773Z,73.10
2019-05-06T12:40:17.920Z,72.30
2019-05-06T12:42:54.870Z,72.00
2019-05-06T12:45:42.762Z,72.80
2019-05-06T12:48:21.226Z,72.50
2019-05-06T12:50:53.740Z,73.00
2019-05-06T12:53:25.809Z,73.80
2019-05-06T12:55:57.989Z,74.10
2019-05-06T12:58:49.098Z,75.30
2019-05-06T13:01:21.269Z,74.80
2019-05-06T13:03:53.835Z,75.60
2019-05-06T13:06:26.580Z,75.20
2019-05-06T13:09:04.068Z,75.80
2019-05-06T13:11:32.974Z,76.80
2019-05-06T13:14:05.007Z,76.80
2019-05-06T13:16:37.498Z,76.30
2019-05-06T13:19:11.960Z,75.40
2019-05-06T13:21:43.853Z,76.30
2019-05-06T13:24:15.923Z,76.80
2019-05-06T13:26:48.058Z,77.90
2019-05-06T13:29:24.411Z,76.90
2019-05-06T13:31:56.676Z,76.60
2019-05-06T13:34:29.038Z,77.40
2019-05-06T13:37:01.483Z,77.60
2019-05-06T13:39:33.736Z,77.60
2019-05-06T13:42:05.982Z,76.30
2019-05-06T13:44:38.001Z,76.90
2019-05-06T13:47:12.233Z,77.10
2019-05-06T13:49:57.757Z,77.50
2019-05-06T13:52:37.006Z,76.70
2019-05-06T13:55:09.371Z,77.50
2019-05-06T13:57:42.948Z,77.50
2019-05-06T14:00:17.466Z,77.50
2019-05-06T14:02:55.477Z,77.30
2019-05-06T14:05:27.769Z,77.20
2019-05-06T14:08:02.547Z,76.90
2019-05-06T14:10:33.849Z,76.40
2019-05-06T14:13:05.926Z,77.10
2019-05-06T14:15:37.951Z,74.70
2019-05-06T14:18:10.076Z,76.00
2019-05-06T14:20:42.921Z,76.60
2019-05-06T14:23:15.101Z,75.70
2019-05-06T14:26:24.056Z,75.60
2019-05-06T14:29:02.423Z,75.10
2019-05-06T14:31:38.024Z,75.80
2019-05-06T14:34:11.960Z,75.90
2019-05-06T14:36:43.896Z,76.50
2019-05-06T14:39:23.669Z,77.10
2019-05-06T14:41:55.986Z,76.90
2019-05-06T14:44:28.203Z,76.40
2019-05-06T14:47:19.058Z,76.50
2019-05-06T14:49:52.970Z,75.40
2019-05-06T14:52:24.881Z,76.00
2019-05-06T14:55:02.269Z,75.90
2019-05-06T14:57:34.392Z,76.50
2019-05-06T15:00:12.173Z,76.10
2019-05-06T15:02:44.287Z,76.00
2019-05-06T15:05:16.849Z,76.00
2019-05-06T15:07:48.915Z,75.60
2019-05-06T15:10:24.026Z,76.70
2019-05-06T15:12:54.780Z,77.30
2019-05-06T15:15:26.881Z,76.30
2019-05-06T15:17:59.027Z,76.60
2019-05-06T15:20:34.135Z,76.30
2019-05-06T15:23:05.021Z,76.60
2019-05-06T15:25:37.231Z,76.40
2019-05-06T15:28:09.343Z,75.30
2019-05-06T15:30:52.678Z,75.70
2019-05-06T15:33:27.951Z,76.70
2019-05-06T15:36:19.103Z,77.90
2019-05-06T15:38:52.731Z,78.00
2019-05-06T15:41:25.151Z,79.20
2019-05-06T15:43:57.721Z,79.70
2019-05-06T15:46:32.157Z,79.30
2019-05-06T15:49:04.111Z,78.90
2019-05-06T15:51:36.629Z,79.20
2019-05-06T15:54:09.084Z,78.60
2019-05-06T15:56:42.347Z,79.50
2019-05-06T15:59:14.514Z,80.10
2019-05-06T16:01:46.709Z,81.30
2019-05-06T16:04:19.205Z,81.10
2019-05-06T16:06:52.946Z,80.50
2019-05-06T16:09:25.581Z,80.20
2019-05-06T16:11:57.746Z,80.90
2019-05-06T16:14:34.484Z,80.80
2019-05-06T16:17:04.100Z,81.30
2019-05-06T16:19:36.229Z,81.10
2019-05-06T16:22:08.357Z,80.60
2019-05-06T16:24:45.859Z,80.60
2019-05-06T16:27:18.100Z,79.60
2019-05-06T16:29:50.109Z,80.60
2019-05-06T16:32:22.429Z,80.60
2019-05-06T16:34:54.847Z,80.40
2019-05-06T16:37:27.446Z,80.80
2019-05-06T16:39:59.516Z,81.50
2019-05-06T16:42:32.168Z,80.80
2019-05-06T16:45:06.909Z,81.00
2019-05-06T16:47:39.536Z,81.40
2019-05-06T16:50:16.385Z,81.60
2019-05-06T16:52:48.809Z,82.10
2019-05-06T16:55:26.512Z,82.10
2019-05-06T16:58:13.032Z,81.90
2019-05-06T17:00:45.712Z,81.90
2019-05-06T17:03:26.450Z,82.40
2019-05-06T17:06:22.924Z,82.80
2019-05-06T17:08:54.436Z,82.40
2019-05-06T17:11:30.760Z,81.90
2019-05-06T17:14:02.963Z,82.40
2019-05-06T17:16:36.035Z,82.90
2019-05-06T17:19:08.733Z,84.00
2019-05-06T17:21:42.299Z,82.90
2019-05-06T17:24:14.815Z,83.10
2019-05-06T17:26:47.432Z,83.90
2019-05-06T17:29:36.651Z,85.10
2019-05-06T17:32:26.607Z,84.90
2019-05-06T17:34:59.153Z,85.70
2019-05-06T17:38:05.095Z,85.70
2019-05-06T17:40:37.325Z,84.80
2019-05-06T17:43:09.497Z,85.40
2019-05-06T17:46:01.984Z,86.10
2019-05-06T17:48:36.516Z,85.90
2019-05-06T17:51:10.492Z,85.50
2019-05-06T17:53:45.569Z,86.10
2019-05-06T17:56:17.706Z,86.40
2019-05-06T17:58:49.847Z,86.90
2019-05-06T18:01:53.761Z,88.80
2019-05-06T18:04:25.892Z,88.30
2019-05-06T18:06:58.154Z,89.50
2019-05-06T18:09:32.949Z,89.20
2019-05-06T18:12:05.074Z,89.60
2019-05-06T18:14:37.529Z,89.90
2019-05-06T18:17:12.311Z,89.30
2019-05-06T18:19:44.010Z,88.10
2019-05-06T18:22:16.465Z,87.80
2019-05-06T18:24:48.768Z,89.10
2019-05-06T18:27:23.070Z,90.00
2019-05-06T18:29:55.221Z,90.60
2019-05-06T18:32:27.469Z,90.10
2019-05-06T18:34:59.869Z,90.30
2019-05-06T18:37:33.145Z,89.50
2019-05-06T18:40:06.556Z,89.80
2019-05-06T18:42:38.876Z,88.50
2019-05-06T18:45:12.325Z,90.00
2019-05-06T18:47:44.716Z,87.20
2019-05-06T18:50:17.502Z,87.80
2019-05-06T18:52:49.822Z,88.90
2019-05-06T18:55:22.471Z,88.00
2019-05-06T18:57:56.914Z,87.80
2019-05-06T19:00:29.200Z,87.90
2019-05-06T19:03:02.668Z,88.60
2019-05-06T19:05:38.962Z,88.00
2019-05-06T19:08:36.435Z,88.30
2019-05-06T19:11:11.983Z,88.80
2019-05-06T19:13:46.836Z,87.60
2019-05-06T19:16:18.964Z,88.40
2019-05-06T19:18:52.272Z,88.10
2019-05-06T19:21:24.688Z,88.50
2019-05-06T19:23:57.137Z,87.90
2019-05-06T19:26:29.388Z,88.50
2019-05-06T19:29:04.311Z,88.60
2019-05-06T19:31:36.052Z,88.70
2019-05-06T19:34:08.410Z,87.80
2019-05-06T19:36:42.242Z,87.30
2019-05-06T19:39:14.501Z,87.10
2019-05-06T19:41:46.660Z,87.10
2019-05-06T19:44:19.285Z,87.10
2019-05-06T19:46:53.252Z,88.10
2019-05-06T19:49:25.762Z,87.10
2019-05-06T19:51:57.917Z,86.70
2019-05-06T19:54:30.237Z,87.40
2019-05-06T19:57:02.638Z,87.70
2019-05-06T19:59:35.016Z,87.30
2019-05-06T20:02:07.842Z,87.10
2019-05-06T20:04:44.083Z,87.80
2019-05-06T20:07:32.954Z,88.10
2019-05-06T20:10:36.775Z,88.00
2019-05-06T20:13:09.187Z,88.10
2019-05-06T20:15:42.923Z,90.60
2019-05-06T20:18:15.508Z,91.10
2019-05-06T20:20:49.427Z,90.30
2019-05-06T20:23:23.176Z,90.50
2019-05-06T20:25:56.104Z,89.60
2019-05-06T20:28:32.166Z,89.40
2019-05-06T20:31:02.591Z,88.90
2019-05-06T20:33:35.072Z,89.30
2019-05-06T20:36:07.441Z,89.90
2019-05-06T20:38:42.209Z,90.00
2019-05-06T20:41:13.864Z,90.10
2019-05-06T20:43:46.340Z,90.30
2019-05-06T20:46:18.619Z,90.30
2019-05-06T20:48:52.916Z,93.00
2019-05-06T20:51:24.905Z,91.20
2019-05-06T20:53:57.148Z,92.00
2019-05-06T20:56:29.592Z,90.90
2019-05-06T20:59:02.482Z,90.50
2019-05-06T21:01:35.164Z,92.40
2019-05-06T21:04:07.790Z,90.90
2019-05-06T21:06:40.012Z,92.00
2019-05-06T21:09:12.720Z,89.80
2019-05-06T21:11:45.103Z,88.70
2019-05-06T21:14:17.337Z,88.60
2019-05-06T21:16:49.676Z,90.10
2019-05-06T21:19:22.402Z,89.50
2019-05-06T21:21:54.729Z,88.80
2019-05-06T21:24:26.787Z,88.80
2019-05-06T21:26:59.216Z,88.90
2019-05-06T21:29:32.448Z,88.70
2019-05-06T21:32:04.748Z,88.80
2019-05-06T21:34:36.756Z,88.50
2019-05-06T21:37:09.593Z,88.50
2019-05-06T21:39:42.394Z,88.30
2019-05-06T21:42:15.034Z,89.00
2019-05-06T21:44:47.068Z,88.80
2019-05-06T21:47:19.195Z,89.00
2019-05-06T21:49:52.871Z,89.50
2019-05-06T21:52:36.583Z,89.20
2019-05-06T21:54:58.847Z,89.70
2019-05-06T21:57:31.036Z,90.10
2019-05-06T22:00:03.696Z,89.90
2019-05-06T22:02:36.018Z,90.30
2019-05-06T22:05:09.372Z,90.30
2019-05-06T22:07:43.332Z,90.40
2019-05-06T22:10:17.027Z,90.50
2019-05-06T22:12:49.115Z,90.60
2019-05-06T22:15:22.769Z,90.70
2019-05-06T22:17:55.082Z,90.40
2019-05-06T22:20:27.116Z,90.40
2019-05-06T22:22:59.130Z,90.70
2019-05-06T22:25:32.670Z,90.80
2019-05-06T22:28:04.682Z,90.70
2019-05-06T22:30:36.658Z,90.70
2019-05-06T22:33:08.685Z,91.30
2019-05-06T22:35:42.947Z,90.90
2019-05-06T22:38:33.445Z,90.80
2019-05-06T22:41:05.490Z,91.00
2019-05-06T22:43:38.100Z,91.30
2019-05-06T22:46:12.320Z,91.30
2019-05-06T22:48:44.159Z,91.30
2019-05-06T22:51:16.591Z,91.40
2019-05-06T22:53:48.905Z,91.20
2019-05-06T22:56:22.866Z,91.20
2019-05-06T22:58:54.791Z,91.10
2019-05-06T23:01:54.239Z,91.00
2019-05-06T23:04:27.050Z,91.00
2019-05-06T23:06:58.988Z,91.00
2019-05-06T23:09:32.577Z,90.90
2019-05-06T23:12:04.918Z,90.70
2019-05-06T23:14:37.360Z,90.80
2019-05-06T23:17:09.629Z,90.40
2019-05-06T23:19:42.844Z,90.40
2019-05-06T23:22:15.234Z,90.80
2019-05-06T23:24:47.333Z,90.70
2019-05-06T23:27:19.324Z,90.90
2019-05-06T23:29:52.615Z,91.10
2019-05-06T23:32:24.921Z,91.60
2019-05-06T23:34:57.164Z,91.70
2019-05-06T23:37:26.361Z,92.10
2019-05-06T23:40:52.257Z,92.30
2019-05-06T23:44:17.980Z,92.10
2019-05-06T23:47:43.760Z,92.50
2019-05-06T23:51:09.209Z,93.00
2019-05-06T23:54:34.725Z,93.30
2019-05-06T23:57:03.860Z,93.10
2019-05-06T23:59:36.124Z,93.70
